RYR420B LOWW-LDSP
Flight info
| Callsign | RYR420B |
|---|---|
| Flight time | 0h 54m |
| Altitude | 33000 |
| Route | STEIN3C/29 STEIN DCT NOHAT DCT NEKIN/N0452F340 DCT NIVES/N0452F350 DCT NUPSO |
| Aircraft | B738/M-SDE2E3FGHIRWXY/LB1 |
Departure
| Time | 2026-04-26 18:17 |
|---|---|
| Airport | Vienna International Airport (LOWW) |
Arrival
| Time | 2026-04-26 19:11 |
|---|---|
| Airport | Split Saint Jerome Airport (LDSP) |
| Time | Latitude | Longitude | Altitude | Speed | Heading |
|---|---|---|---|---|---|
| 2026-04-26 17:41 | 48.12135 | 16.55347 | 616 ft | 0 kts | 296° |
| 2026-04-26 18:07 | 48.12137 | 16.55343 | 581 ft | 5 kts | 296° |
| 2026-04-26 18:07 | 48.12146 | 16.55315 | 615 ft | 3 kts | 294° |
| 2026-04-26 18:07 | 48.12140 | 16.55279 | 609 ft | 5 kts | 232° |
| 2026-04-26 18:07 | 48.12119 | 16.55260 | 609 ft | 7 kts | 207° |
| 2026-04-26 18:08 | 48.12040 | 16.55202 | 616 ft | 11 kts | 205° |
| 2026-04-26 18:08 | 48.11992 | 16.55176 | 612 ft | 7 kts | 180° |
| 2026-04-26 18:08 | 48.11940 | 16.55190 | 609 ft | 8 kts | 184° |
| 2026-04-26 18:08 | 48.11886 | 16.55199 | 619 ft | 8 kts | 133° |
| 2026-04-26 18:09 | 48.11860 | 16.55275 | 616 ft | 8 kts | 116° |
| 2026-04-26 18:09 | 48.11833 | 16.55357 | 618 ft | 10 kts | 116° |
| 2026-04-26 18:09 | 48.11796 | 16.55470 | 612 ft | 14 kts | 116° |
| 2026-04-26 18:09 | 48.11746 | 16.55626 | 618 ft | 19 kts | 115° |
| 2026-04-26 18:10 | 48.11680 | 16.55828 | 614 ft | 24 kts | 116° |
| 2026-04-26 18:10 | 48.11602 | 16.56068 | 609 ft | 27 kts | 116° |
| 2026-04-26 18:10 | 48.11515 | 16.56338 | 616 ft | 30 kts | 115° |
| 2026-04-26 18:10 | 48.11421 | 16.56622 | 614 ft | 30 kts | 115° |
| 2026-04-26 18:11 | 48.11335 | 16.56892 | 620 ft | 28 kts | 115° |
| 2026-04-26 18:11 | 48.11251 | 16.57145 | 615 ft | 26 kts | 116° |
| 2026-04-26 18:11 | 48.11175 | 16.57380 | 615 ft | 24 kts | 116° |
| 2026-04-26 18:11 | 48.11112 | 16.57572 | 616 ft | 19 kts | 116° |
| 2026-04-26 18:12 | 48.11040 | 16.57644 | 609 ft | 5 kts | 200° |
| 2026-04-26 18:12 | 48.11025 | 16.57633 | 620 ft | 0 kts | 205° |
| 2026-04-26 18:15 | 48.11018 | 16.57629 | 616 ft | 4 kts | 206° |
| 2026-04-26 18:16 | 48.10974 | 16.57597 | 615 ft | 9 kts | 206° |
| 2026-04-26 18:16 | 48.10919 | 16.57529 | 617 ft | 5 kts | 275° |
| 2026-04-26 18:16 | 48.10925 | 16.57503 | 613 ft | 0 kts | 295° |
| 2026-04-26 18:17 | 48.10974 | 16.57351 | 616 ft | 48 kts | 296° |
| 2026-04-26 18:17 | 48.11225 | 16.56586 | 614 ft | 115 kts | 296° |
| 2026-04-26 18:17 | 48.11670 | 16.55254 | 676 ft | 164 kts | 299° |
| 2026-04-26 18:17 | 48.12189 | 16.53698 | 1433 ft | 162 kts | 301° |
| 2026-04-26 18:18 | 48.12511 | 16.52051 | 2182 ft | 172 kts | 268° |
| 2026-04-26 18:18 | 48.11974 | 16.50377 | 2634 ft | 199 kts | 222° |
| 2026-04-26 18:18 | 48.10687 | 16.49384 | 2943 ft | 223 kts | 204° |
| 2026-04-26 18:18 | 48.09208 | 16.48338 | 3160 ft | 243 kts | 208° |
| 2026-04-26 18:19 | 48.07613 | 16.47305 | 3584 ft | 253 kts | 194° |
| 2026-04-26 18:19 | 48.05855 | 16.47397 | 4100 ft | 259 kts | 167° |
| 2026-04-26 18:19 | 48.04017 | 16.47902 | 4384 ft | 277 kts | 173° |
| 2026-04-26 18:19 | 48.02079 | 16.48262 | 4961 ft | 287 kts | 174° |
| 2026-04-26 18:20 | 48.00097 | 16.48621 | 5841 ft | 285 kts | 176° |
| 2026-04-26 18:20 | 47.98115 | 16.48976 | 6668 ft | 287 kts | 180° |
| 2026-04-26 18:20 | 47.96117 | 16.49081 | 7351 ft | 290 kts | 181° |
| 2026-04-26 18:20 | 47.94773 | 16.49290 | 7828 ft | 295 kts | 176° |
| 2026-04-26 18:21 | 47.92063 | 16.49918 | 8841 ft | 299 kts | 175° |
| 2026-04-26 18:21 | 47.89991 | 16.50413 | 9574 ft | 303 kts | 175° |
| 2026-04-26 18:21 | 47.87913 | 16.50891 | 10278 ft | 307 kts | 175° |
| 2026-04-26 18:21 | 47.85749 | 16.51367 | 10646 ft | 323 kts | 175° |
| 2026-04-26 18:22 | 47.83433 | 16.51856 | 10810 ft | 345 kts | 175° |
| 2026-04-26 18:22 | 47.81006 | 16.52357 | 10986 ft | 366 kts | 175° |
| 2026-04-26 18:22 | 47.78413 | 16.52886 | 11319 ft | 379 kts | 175° |
| 2026-04-26 18:22 | 47.75761 | 16.53425 | 11917 ft | 385 kts | 175° |
| 2026-04-26 18:23 | 47.73120 | 16.53960 | 12585 ft | 388 kts | 175° |
| 2026-04-26 18:23 | 47.70429 | 16.54503 | 13246 ft | 392 kts | 175° |
| 2026-04-26 18:23 | 47.67724 | 16.55045 | 13905 ft | 396 kts | 175° |
| 2026-04-26 18:23 | 47.64957 | 16.55598 | 14553 ft | 400 kts | 175° |
| 2026-04-26 18:24 | 47.62175 | 16.56153 | 15205 ft | 403 kts | 174° |
| 2026-04-26 18:24 | 47.59400 | 16.56706 | 15890 ft | 405 kts | 174° |
| 2026-04-26 18:24 | 47.56580 | 16.57267 | 16571 ft | 408 kts | 174° |
| 2026-04-26 18:24 | 47.53773 | 16.57824 | 17199 ft | 412 kts | 174° |
| 2026-04-26 18:25 | 47.50901 | 16.58394 | 17816 ft | 416 kts | 174° |
| 2026-04-26 18:25 | 47.48012 | 16.58967 | 18472 ft | 419 kts | 174° |
| 2026-04-26 18:25 | 47.45132 | 16.59491 | 19028 ft | 421 kts | 176° |
| 2026-04-26 18:25 | 47.42203 | 16.59851 | 19652 ft | 420 kts | 178° |
| 2026-04-26 18:26 | 47.39278 | 16.60133 | 20358 ft | 419 kts | 179° |
| 2026-04-26 18:26 | 47.36383 | 16.60394 | 20875 ft | 423 kts | 179° |
| 2026-04-26 18:26 | 47.33419 | 16.60666 | 21369 ft | 427 kts | 179° |
| 2026-04-26 18:26 | 47.30466 | 16.60950 | 21891 ft | 429 kts | 179° |
| 2026-04-26 18:27 | 47.27468 | 16.61251 | 22437 ft | 432 kts | 178° |
| 2026-04-26 18:27 | 47.24447 | 16.61563 | 22952 ft | 434 kts | 178° |
| 2026-04-26 18:27 | 47.21448 | 16.61877 | 23437 ft | 437 kts | 179° |
| 2026-04-26 18:27 | 47.18402 | 16.62199 | 23948 ft | 438 kts | 179° |
| 2026-04-26 18:28 | 47.15342 | 16.62523 | 24339 ft | 441 kts | 179° |
| 2026-04-26 18:28 | 47.12291 | 16.62846 | 24705 ft | 444 kts | 179° |
| 2026-04-26 18:28 | 47.09173 | 16.63175 | 25069 ft | 447 kts | 179° |
| 2026-04-26 18:28 | 47.06088 | 16.63500 | 25442 ft | 450 kts | 179° |
| 2026-04-26 18:29 | 47.02935 | 16.63832 | 25770 ft | 454 kts | 179° |
| 2026-04-26 18:29 | 46.99743 | 16.64166 | 26013 ft | 460 kts | 179° |
| 2026-04-26 18:29 | 46.96590 | 16.64497 | 26452 ft | 460 kts | 179° |
| 2026-04-26 18:29 | 46.93376 | 16.64835 | 26846 ft | 461 kts | 179° |
| 2026-04-26 18:30 | 46.90152 | 16.65172 | 27150 ft | 465 kts | 179° |
| 2026-04-26 18:30 | 46.86927 | 16.65509 | 27453 ft | 468 kts | 179° |
| 2026-04-26 18:30 | 46.83700 | 16.65846 | 27781 ft | 470 kts | 179° |
| 2026-04-26 18:30 | 46.80407 | 16.66190 | 28113 ft | 473 kts | 179° |
| 2026-04-26 18:31 | 46.77110 | 16.66533 | 28388 ft | 476 kts | 179° |
| 2026-04-26 18:31 | 46.73806 | 16.66876 | 28633 ft | 479 kts | 179° |
| 2026-04-26 18:31 | 46.70473 | 16.67223 | 28983 ft | 480 kts | 179° |
| 2026-04-26 18:31 | 46.67128 | 16.67571 | 29469 ft | 478 kts | 179° |
| 2026-04-26 18:32 | 46.63840 | 16.67914 | 29964 ft | 477 kts | 179° |
| 2026-04-26 18:32 | 46.60525 | 16.68257 | 30366 ft | 476 kts | 179° |
| 2026-04-26 18:32 | 46.57201 | 16.68600 | 30684 ft | 477 kts | 179° |
| 2026-04-26 18:32 | 46.53930 | 16.68938 | 31186 ft | 472 kts | 179° |
| 2026-04-26 18:33 | 46.50661 | 16.69276 | 31716 ft | 467 kts | 179° |
| 2026-04-26 18:33 | 46.47418 | 16.69611 | 32127 ft | 465 kts | 179° |
| 2026-04-26 18:33 | 46.40939 | 16.69483 | 32238 ft | 464 kts | 193° |
| 2026-04-26 18:34 | 46.34972 | 16.66546 | 32205 ft | 449 kts | 209° |
| 2026-04-26 18:34 | 46.29382 | 16.62572 | 32215 ft | 449 kts | 208° |
| 2026-04-26 18:35 | 46.23721 | 16.58659 | 32207 ft | 450 kts | 208° |
| 2026-04-26 18:35 | 46.18073 | 16.54805 | 32216 ft | 451 kts | 208° |
| 2026-04-26 18:36 | 46.12375 | 16.50933 | 32205 ft | 451 kts | 208° |
| 2026-04-26 18:36 | 46.06694 | 16.47069 | 32202 ft | 452 kts | 208° |
| 2026-04-26 18:37 | 46.00997 | 16.43205 | 32196 ft | 453 kts | 208° |
| 2026-04-26 18:37 | 45.95305 | 16.39355 | 32188 ft | 453 kts | 208° |
| 2026-04-26 18:38 | 45.89612 | 16.35514 | 32190 ft | 453 kts | 208° |
| 2026-04-26 18:38 | 45.83885 | 16.31658 | 32185 ft | 453 kts | 208° |
| 2026-04-26 18:39 | 45.78195 | 16.27840 | 32179 ft | 453 kts | 207° |
| 2026-04-26 18:39 | 45.75225 | 16.26277 | 32170 ft | 457 kts | 196° |
| 2026-04-26 18:39 | 45.72083 | 16.25437 | 32200 ft | 458 kts | 192° |
| 2026-04-26 18:40 | 45.65780 | 16.23942 | 32185 ft | 459 kts | 192° |
| 2026-04-26 18:40 | 45.59511 | 16.22370 | 32175 ft | 458 kts | 193° |
| 2026-04-26 18:41 | 45.53254 | 16.20748 | 32175 ft | 458 kts | 193° |
| 2026-04-26 18:41 | 45.48025 | 16.19384 | 32168 ft | 458 kts | 193° |
| 2026-04-26 18:42 | 45.41763 | 16.17754 | 32167 ft | 457 kts | 193° |
| 2026-04-26 18:42 | 45.35489 | 16.16127 | 32162 ft | 457 kts | 193° |
| 2026-04-26 18:43 | 45.29245 | 16.14513 | 32162 ft | 456 kts | 193° |
| 2026-04-26 18:43 | 45.22986 | 16.12898 | 32156 ft | 456 kts | 193° |
| 2026-04-26 18:44 | 45.16771 | 16.11299 | 32154 ft | 455 kts | 192° |
| 2026-04-26 18:44 | 45.10515 | 16.09692 | 32155 ft | 455 kts | 192° |
| 2026-04-26 18:45 | 45.04305 | 16.08102 | 32138 ft | 449 kts | 192° |
| 2026-04-26 18:45 | 45.01282 | 16.07332 | 32126 ft | 433 kts | 192° |
| 2026-04-26 18:45 | 44.98358 | 16.06589 | 32130 ft | 419 kts | 193° |
| 2026-04-26 18:46 | 44.95533 | 16.05870 | 32129 ft | 406 kts | 193° |
| 2026-04-26 18:46 | 44.92792 | 16.05172 | 32130 ft | 395 kts | 193° |
| 2026-04-26 18:46 | 44.87405 | 16.03795 | 32168 ft | 400 kts | 193° |
| 2026-04-26 18:47 | 44.81800 | 16.02362 | 32169 ft | 414 kts | 193° |
| 2026-04-26 18:47 | 44.76116 | 16.00919 | 32149 ft | 417 kts | 192° |
| 2026-04-26 18:48 | 44.70414 | 15.99477 | 32143 ft | 418 kts | 192° |
| 2026-04-26 18:48 | 44.64691 | 15.98033 | 32136 ft | 415 kts | 193° |
| 2026-04-26 18:49 | 44.61893 | 15.97329 | 32028 ft | 407 kts | 192° |
| 2026-04-26 18:49 | 44.59085 | 15.96622 | 31358 ft | 411 kts | 192° |
| 2026-04-26 18:49 | 44.56210 | 15.95895 | 30237 ft | 427 kts | 192° |
| 2026-04-26 18:49 | 44.53238 | 15.95143 | 28965 ft | 443 kts | 192° |
| 2026-04-26 18:50 | 44.50183 | 15.94374 | 28231 ft | 444 kts | 192° |
| 2026-04-26 18:50 | 44.47179 | 15.93623 | 27720 ft | 439 kts | 191° |
| 2026-04-26 18:50 | 44.44180 | 15.92877 | 27261 ft | 433 kts | 191° |
| 2026-04-26 18:50 | 44.41210 | 15.92134 | 26769 ft | 429 kts | 192° |
| 2026-04-26 18:51 | 44.38255 | 15.91394 | 25888 ft | 434 kts | 191° |
| 2026-04-26 18:51 | 44.35260 | 15.90642 | 24758 ft | 447 kts | 191° |
| 2026-04-26 18:51 | 44.32175 | 15.89870 | 24074 ft | 447 kts | 191° |
| 2026-04-26 18:51 | 44.29166 | 15.89120 | 23596 ft | 441 kts | 190° |
| 2026-04-26 18:52 | 44.26158 | 15.88371 | 22999 ft | 435 kts | 190° |
| 2026-04-26 18:52 | 44.23176 | 15.87629 | 22327 ft | 432 kts | 190° |
| 2026-04-26 18:52 | 44.20240 | 15.86899 | 21690 ft | 430 kts | 190° |
| 2026-04-26 18:52 | 44.17297 | 15.86168 | 21127 ft | 425 kts | 190° |
| 2026-04-26 18:53 | 44.14372 | 15.85643 | 20543 ft | 421 kts | 179° |
| 2026-04-26 18:53 | 44.11551 | 15.86392 | 19948 ft | 417 kts | 156° |
| 2026-04-26 18:53 | 44.09000 | 15.88261 | 19487 ft | 410 kts | 150° |
| 2026-04-26 18:53 | 44.06499 | 15.90152 | 18946 ft | 407 kts | 151° |
| 2026-04-26 18:54 | 44.04010 | 15.91955 | 18383 ft | 405 kts | 152° |
| 2026-04-26 18:54 | 44.01512 | 15.93743 | 17785 ft | 402 kts | 152° |
| 2026-04-26 18:54 | 43.99029 | 15.95514 | 17190 ft | 399 kts | 152° |
| 2026-04-26 18:54 | 43.96555 | 15.97279 | 16562 ft | 397 kts | 152° |
| 2026-04-26 18:55 | 43.94153 | 15.98995 | 16346 ft | 385 kts | 152° |
| 2026-04-26 18:55 | 43.91826 | 16.00656 | 16246 ft | 371 kts | 152° |
| 2026-04-26 18:55 | 43.89542 | 16.02284 | 15622 ft | 372 kts | 152° |
| 2026-04-26 18:55 | 43.87111 | 16.03758 | 14502 ft | 389 kts | 165° |
| 2026-04-26 18:56 | 43.84381 | 16.03891 | 13574 ft | 398 kts | 192° |
| 2026-04-26 18:56 | 43.81734 | 16.02893 | 13038 ft | 393 kts | 194° |
| 2026-04-26 18:56 | 43.79060 | 16.02122 | 12478 ft | 388 kts | 189° |
| 2026-04-26 18:56 | 43.76418 | 16.01505 | 11951 ft | 384 kts | 189° |
| 2026-04-26 18:57 | 43.73816 | 16.00886 | 11459 ft | 379 kts | 189° |
| 2026-04-26 18:57 | 43.72066 | 16.00448 | 11133 ft | 376 kts | 190° |
| 2026-04-26 18:57 | 43.68676 | 15.99565 | 10467 ft | 370 kts | 191° |
| 2026-04-26 18:57 | 43.66245 | 15.98530 | 10191 ft | 358 kts | 204° |
| 2026-04-26 18:58 | 43.64178 | 15.96891 | 10056 ft | 335 kts | 212° |
| 2026-04-26 18:58 | 43.62252 | 15.95213 | 9923 ft | 317 kts | 211° |
| 2026-04-26 18:58 | 43.60419 | 15.93657 | 9792 ft | 300 kts | 210° |
| 2026-04-26 18:58 | 43.58696 | 15.92213 | 9610 ft | 288 kts | 210° |
| 2026-04-26 18:59 | 43.56985 | 15.90793 | 9174 ft | 285 kts | 210° |
| 2026-04-26 18:59 | 43.55291 | 15.89395 | 8691 ft | 285 kts | 210° |
| 2026-04-26 18:59 | 43.53579 | 15.87986 | 8239 ft | 285 kts | 210° |
| 2026-04-26 18:59 | 43.51870 | 15.86582 | 8002 ft | 282 kts | 210° |
| 2026-04-26 19:00 | 43.50200 | 15.85212 | 7827 ft | 281 kts | 210° |
| 2026-04-26 19:00 | 43.48529 | 15.83843 | 7662 ft | 282 kts | 209° |
| 2026-04-26 19:00 | 43.46832 | 15.82454 | 7508 ft | 282 kts | 209° |
| 2026-04-26 19:00 | 43.45150 | 15.81078 | 7355 ft | 283 kts | 209° |
| 2026-04-26 19:01 | 43.43447 | 15.79685 | 7197 ft | 283 kts | 210° |
| 2026-04-26 19:01 | 43.41763 | 15.78309 | 7038 ft | 284 kts | 210° |
| 2026-04-26 19:01 | 43.40065 | 15.76922 | 6881 ft | 284 kts | 210° |
| 2026-04-26 19:01 | 43.38357 | 15.75528 | 6717 ft | 284 kts | 210° |
| 2026-04-26 19:02 | 43.36678 | 15.74160 | 6562 ft | 283 kts | 210° |
| 2026-04-26 19:02 | 43.34978 | 15.72775 | 6399 ft | 282 kts | 210° |
| 2026-04-26 19:02 | 43.33254 | 15.71479 | 6223 ft | 281 kts | 200° |
| 2026-04-26 19:02 | 43.32000 | 15.71065 | 6017 ft | 278 kts | 184° |
| 2026-04-26 19:03 | 43.29556 | 15.71822 | 5717 ft | 268 kts | 147° |
| 2026-04-26 19:03 | 43.28253 | 15.73582 | 5622 ft | 261 kts | 121° |
| 2026-04-26 19:03 | 43.27699 | 15.75947 | 5487 ft | 264 kts | 94° |
| 2026-04-26 19:03 | 43.27880 | 15.78445 | 5366 ft | 265 kts | 82° |
| 2026-04-26 19:04 | 43.28378 | 15.80870 | 5170 ft | 270 kts | 63° |
| 2026-04-26 19:04 | 43.29447 | 15.83010 | 5050 ft | 272 kts | 55° |
| 2026-04-26 19:04 | 43.30545 | 15.85153 | 4878 ft | 275 kts | 57° |
| 2026-04-26 19:04 | 43.31606 | 15.87311 | 4706 ft | 275 kts | 57° |
| 2026-04-26 19:05 | 43.33685 | 15.91645 | 4372 ft | 267 kts | 58° |
| 2026-04-26 19:05 | 43.34693 | 15.93774 | 4207 ft | 263 kts | 58° |
| 2026-04-26 19:05 | 43.35666 | 15.95838 | 4061 ft | 257 kts | 57° |
| 2026-04-26 19:06 | 43.36631 | 15.97890 | 3913 ft | 251 kts | 57° |
| 2026-04-26 19:06 | 43.37559 | 15.99873 | 3773 ft | 246 kts | 58° |
| 2026-04-26 19:06 | 43.38472 | 16.01843 | 3633 ft | 240 kts | 55° |
| 2026-04-26 19:06 | 43.39429 | 16.03695 | 3516 ft | 233 kts | 53° |
| 2026-04-26 19:07 | 43.40386 | 16.05445 | 3374 ft | 228 kts | 52° |
| 2026-04-26 19:07 | 43.41339 | 16.07167 | 3239 ft | 222 kts | 52° |
| 2026-04-26 19:07 | 43.42245 | 16.08801 | 3145 ft | 211 kts | 51° |
| 2026-04-26 19:07 | 43.43119 | 16.10378 | 2985 ft | 202 kts | 51° |
| 2026-04-26 19:08 | 43.43970 | 16.11912 | 2873 ft | 200 kts | 51° |
| 2026-04-26 19:08 | 43.44812 | 16.13431 | 2723 ft | 200 kts | 51° |
| 2026-04-26 19:08 | 43.45655 | 16.14953 | 2469 ft | 202 kts | 51° |
| 2026-04-26 19:08 | 43.46506 | 16.16487 | 2197 ft | 200 kts | 51° |
| 2026-04-26 19:09 | 43.47335 | 16.17983 | 1953 ft | 196 kts | 51° |
| 2026-04-26 19:09 | 43.48159 | 16.19468 | 1702 ft | 191 kts | 51° |
| 2026-04-26 19:09 | 43.48939 | 16.20875 | 1453 ft | 181 kts | 52° |
| 2026-04-26 19:09 | 43.49682 | 16.22214 | 1220 ft | 171 kts | 52° |
| 2026-04-26 19:10 | 43.50386 | 16.23481 | 1022 ft | 158 kts | 52° |
| 2026-04-26 19:10 | 43.51034 | 16.24648 | 795 ft | 153 kts | 52° |
| 2026-04-26 19:10 | 43.51674 | 16.25807 | 586 ft | 151 kts | 53° |
| 2026-04-26 19:10 | 43.52311 | 16.26955 | 380 ft | 151 kts | 52° |
| 2026-04-26 19:11 | 43.52961 | 16.28109 | 221 ft | 153 kts | 52° |
| 2026-04-26 19:11 | 43.53603 | 16.29273 | 94 ft | 146 kts | 53° |
| 2026-04-26 19:11 | 43.54150 | 16.30255 | 62 ft | 102 kts | 52° |
| 2026-04-26 19:11 | 43.54462 | 16.30815 | 53 ft | 48 kts | 52° |
| 2026-04-26 19:12 | 43.54551 | 16.31026 | 61 ft | 11 kts | 88° |
| 2026-04-26 19:12 | 43.54582 | 16.31038 | 55 ft | 6 kts | 288° |
| 2026-04-26 19:12 | 43.54558 | 16.30986 | 57 ft | 7 kts | 225° |
| 2026-04-26 19:12 | 43.54519 | 16.30917 | 60 ft | 12 kts | 233° |
| 2026-04-26 19:13 | 43.54461 | 16.30810 | 57 ft | 16 kts | 233° |
| 2026-04-26 19:13 | 43.54383 | 16.30671 | 55 ft | 21 kts | 231° |
| 2026-04-26 19:13 | 43.54283 | 16.30493 | 60 ft | 24 kts | 232° |
| 2026-04-26 19:13 | 43.54183 | 16.30313 | 65 ft | 23 kts | 232° |
| 2026-04-26 19:14 | 43.54081 | 16.30154 | 74 ft | 22 kts | 218° |
| 2026-04-26 19:14 | 43.53955 | 16.30076 | 69 ft | 8 kts | 195° |
| 2026-04-26 19:14 | 43.53896 | 16.30039 | 61 ft | 10 kts | 221° |
| 2026-04-26 19:14 | 43.53882 | 16.30016 | 64 ft | 10 kts | 232° |
| 2026-04-26 19:15 | 43.53857 | 16.29977 | 63 ft | 3 kts | 200° |
| 2026-04-26 19:15 | 43.53842 | 16.29996 | 64 ft | 3 kts | 105° |
| 2026-04-26 19:15 | 43.53835 | 16.30027 | 67 ft | 3 kts | 109° |
| 2026-04-26 19:15 | 43.53829 | 16.30049 | 59 ft | 1 kts | 113° |
| 2026-04-26 19:16 | 43.53828 | 16.30052 | 59 ft | 0 kts | 113° |